sensor_id;sensor_type;location;lat;lon;timestamp;pressure;altitude;pressure_sealevel;temperature;humidity
56340;BME280;42243;42.644;23.366;2023-06-04T00:00:23;94702.72;;;17.45;83.28
56340;BME280;42243;42.644;23.366;2023-06-04T00:02:48;94689.16;;;17.53;83.01
56340;BME280;42243;42.644;23.366;2023-06-04T00:05:14;94700.34;;;17.60;82.52
56340;BME280;42243;42.644;23.366;2023-06-04T00:07:39;94591.25;;;17.11;81.62
56340;BME280;42243;42.644;23.366;2023-06-04T00:10:05;94693.34;;;17.66;81.64
56340;BME280;42243;42.644;23.366;2023-06-04T00:12:31;94685.47;;;17.71;81.35
56340;BME280;42243;42.644;23.366;2023-06-04T00:14:56;94626.88;;;17.47;80.29
56340;BME280;42243;42.644;23.366;2023-06-04T00:17:21;94656.72;;;17.53;80.91
56340;BME280;42243;42.644;23.366;2023-06-04T00:19:47;94689.97;;;17.71;80.92
56340;BME280;42243;42.644;23.366;2023-06-04T00:22:12;94595.97;;;16.80;81.10
56340;BME280;42243;42.644;23.366;2023-06-04T00:24:38;94565.00;;;16.13;83.48
56340;BME280;42243;42.644;23.366;2023-06-04T00:27:07;94608.00;;;16.07;85.13
56340;BME280;42243;42.644;23.366;2023-06-04T00:29:33;94692.88;;;16.54;86.02
56340;BME280;42243;42.644;23.366;2023-06-04T00:31:59;94650.50;;;16.27;85.92
56340;BME280;42243;42.644;23.366;2023-06-04T00:34:24;94679.59;;;16.61;85.75
56340;BME280;42243;42.644;23.366;2023-06-04T00:36:50;94607.88;;;16.13;85.33
56340;BME280;42243;42.644;23.366;2023-06-04T00:39:15;94661.53;;;16.65;85.23
56340;BME280;42243;42.644;23.366;2023-06-04T00:41:41;94688.56;;;16.89;84.84
56340;BME280;42243;42.644;23.366;2023-06-04T00:44:06;94558.78;;;16.31;83.99
56340;BME280;42243;42.644;23.366;2023-06-04T00:46:32;94604.88;;;16.91;82.88
56340;BME280;42243;42.644;23.366;2023-06-04T00:48:58;94617.84;;;17.09;82.31
56340;BME280;42243;42.644;23.366;2023-06-04T00:51:24;94585.69;;;17.07;81.00
56340;BME280;42243;42.644;23.366;2023-06-04T00:53:51;94665.84;;;17.45;81.72
56340;BME280;42243;42.644;23.366;2023-06-04T00:56:17;94661.84;;;17.26;82.64
56340;BME280;42243;42.644;23.366;2023-06-04T00:58:44;94638.25;;;16.73;84.37
56340;BME280;42243;42.644;23.366;2023-06-04T01:01:26;94682.06;;;16.79;85.34
56340;BME280;42243;42.644;23.366;2023-06-04T01:03:57;94633.72;;;16.28;86.65
56340;BME280;42243;42.644;23.366;2023-06-04T01:06:39;94681.31;;;16.67;87.06
56340;BME280;42243;42.644;23.366;2023-06-04T01:09:07;94675.75;;;16.40;88.57
56340;BME280;42243;42.644;23.366;2023-06-04T01:11:38;94667.94;;;16.05;90.68
56340;BME280;42243;42.644;23.366;2023-06-04T01:14:05;94688.75;;;16.06;92.35
56340;BME280;42243;42.644;23.366;2023-06-04T01:16:40;94662.31;;;16.25;91.23
56340;BME280;42243;42.644;23.366;2023-06-04T01:22:35;94679.78;;;17.12;87.61
56340;BME280;42243;42.644;23.366;2023-06-04T01:25:12;94564.56;;;16.45;87.10
56340;BME280;42243;42.644;23.366;2023-06-04T01:27:46;94602.97;;;16.74;86.97
56340;BME280;42243;42.644;23.366;2023-06-04T01:30:14;94587.09;;;16.69;86.74
56340;BME280;42243;42.644;23.366;2023-06-04T01:32:39;94682.59;;;17.22;86.76
56340;BME280;42243;42.644;23.366;2023-06-04T01:35:08;94643.13;;;16.93;86.43
56340;BME280;42243;42.644;23.366;2023-06-04T01:37:34;94548.22;;;16.42;85.91
56340;BME280;42243;42.644;23.366;2023-06-04T01:39:59;94694.66;;;17.35;86.13
56340;BME280;42243;42.644;23.366;2023-06-04T01:42:25;94630.16;;;16.63;86.79
56340;BME280;42243;42.644;23.366;2023-06-04T01:44:50;94605.41;;;16.35;87.54
56340;BME280;42243;42.644;23.366;2023-06-04T01:47:16;94705.56;;;16.69;87.45
56340;BME280;42243;42.644;23.366;2023-06-04T01:49:41;94613.69;;;16.27;87.38
56340;BME280;42243;42.644;23.366;2023-06-04T01:52:07;94617.56;;;16.36;87.24
56340;BME280;42243;42.644;23.366;2023-06-04T01:54:32;94708.22;;;16.57;87.73
56340;BME280;42243;42.644;23.366;2023-06-04T01:56:59;94703.91;;;16.28;88.27
56340;BME280;42243;42.644;23.366;2023-06-04T01:59:24;94707.81;;;16.25;88.56
56340;BME280;42243;42.644;23.366;2023-06-04T02:01:50;94562.34;;;15.25;87.96
56340;BME280;42243;42.644;23.366;2023-06-04T02:04:16;94653.50;;;16.19;86.71
56340;BME280;42243;42.644;23.366;2023-06-04T02:06:41;94643.91;;;15.66;86.84
56340;BME280;42243;42.644;23.366;2023-06-04T02:09:06;94639.59;;;15.83;86.34
56340;BME280;42243;42.644;23.366;2023-06-04T02:11:32;94719.66;;;16.51;85.33
56340;BME280;42243;42.644;23.366;2023-06-04T02:13:57;94658.53;;;16.09;85.73
56340;BME280;42243;42.644;23.366;2023-06-04T02:16:23;94704.97;;;16.15;87.00
56340;BME280;42243;42.644;23.366;2023-06-04T02:18:48;94704.47;;;16.41;86.28
56340;BME280;42243;42.644;23.366;2023-06-04T02:21:14;94710.81;;;16.81;84.91
56340;BME280;42243;42.644;23.366;2023-06-04T02:23:39;94563.19;;;16.01;83.91
56340;BME280;42243;42.644;23.366;2023-06-04T02:26:05;94604.16;;;16.38;83.26
56340;BME280;42243;42.644;23.366;2023-06-04T02:28:31;94687.88;;;16.93;83.67
56340;BME280;42243;42.644;23.366;2023-06-04T02:30:57;94538.72;;;16.13;82.79
56340;BME280;42243;42.644;23.366;2023-06-04T02:33:22;94652.47;;;16.60;83.77
56340;BME280;42243;42.644;23.366;2023-06-04T02:35:48;94642.84;;;16.66;83.50
56340;BME280;42243;42.644;23.366;2023-06-04T02:38:13;94682.88;;;17.09;82.99
56340;BME280;42243;42.644;23.366;2023-06-04T02:40:38;94628.84;;;16.77;81.86
56340;BME280;42243;42.644;23.366;2023-06-04T02:43:04;94700.78;;;16.95;83.12
56340;BME280;42243;42.644;23.366;2023-06-04T02:45:29;94650.06;;;16.71;82.66
56340;BME280;42243;42.644;23.366;2023-06-04T02:47:55;94685.94;;;16.89;82.39
56340;BME280;42243;42.644;23.366;2023-06-04T02:50:20;94624.53;;;16.71;81.64
56340;BME280;42243;42.644;23.366;2023-06-04T02:52:46;94714.34;;;17.15;82.36
56340;BME280;42243;42.644;23.366;2023-06-04T02:55:11;94654.59;;;16.75;81.89
56340;BME280;42243;42.644;23.366;2023-06-04T02:57:40;94757.47;;;17.26;82.24
56340;BME280;42243;42.644;23.366;2023-06-04T03:00:07;94657.97;;;16.59;82.43
56340;BME280;42243;42.644;23.366;2023-06-04T03:02:42;94756.91;;;16.95;83.31
56340;BME280;42243;42.644;23.366;2023-06-04T03:05:09;94768.22;;;16.96;84.03
56340;BME280;42243;42.644;23.366;2023-06-04T03:07:39;94618.84;;;16.22;83.37
56340;BME280;42243;42.644;23.366;2023-06-04T03:10:07;94754.38;;;16.89;83.96
56340;BME280;42243;42.644;23.366;2023-06-04T03:12:32;94722.31;;;16.28;86.06
56340;BME280;42243;42.644;23.366;2023-06-04T03:14:58;94737.59;;;16.66;85.03
56340;BME280;42243;42.644;23.366;2023-06-04T03:17:23;94689.81;;;16.46;84.47
56340;BME280;42243;42.644;23.366;2023-06-04T03:19:49;94674.22;;;16.56;83.79
56340;BME280;42243;42.644;23.366;2023-06-04T03:22:14;94710.31;;;16.96;83.37
56340;BME280;42243;42.644;23.366;2023-06-04T03:24:40;94760.31;;;17.53;81.50
56340;BME280;42243;42.644;23.366;2023-06-04T03:27:08;94539.25;;;15.86;81.78
56340;BME280;42243;42.644;23.366;2023-06-04T03:29:34;94731.19;;;16.86;82.93
56340;BME280;42243;42.644;23.366;2023-06-04T03:32:00;94768.94;;;16.79;84.38
56340;BME280;42243;42.644;23.366;2023-06-04T03:34:26;94773.50;;;16.96;83.99
56340;BME280;42243;42.644;23.366;2023-06-04T03:36:54;94769.94;;;17.02;83.53
56340;BME280;42243;42.644;23.366;2023-06-04T03:39:20;94775.19;;;17.02;83.71
56340;BME280;42243;42.644;23.366;2023-06-04T03:41:47;94764.88;;;16.36;86.24
56340;BME280;42243;42.644;23.366;2023-06-04T03:44:13;94788.66;;;16.18;87.89
56340;BME280;42243;42.644;23.366;2023-06-04T03:46:40;94783.38;;;16.18;88.01
56340;BME280;42243;42.644;23.366;2023-06-04T03:49:05;94719.31;;;15.53;89.20
56340;BME280;42243;42.644;23.366;2023-06-04T03:51:31;94658.69;;;15.25;89.53
56340;BME280;42243;42.644;23.366;2023-06-04T03:53:58;94788.44;;;16.31;88.20
56340;BME280;42243;42.644;23.366;2023-06-04T03:56:24;94708.28;;;15.98;87.31
56340;BME280;42243;42.644;23.366;2023-06-04T03:58:52;94753.53;;;16.59;85.87
56340;BME280;42243;42.644;23.366;2023-06-04T04:01:17;94788.88;;;16.75;85.59
56340;BME280;42243;42.644;23.366;2023-06-04T04:03:43;94754.59;;;16.47;85.69
56340;BME280;42243;42.644;23.366;2023-06-04T04:06:09;94797.94;;;16.32;88.04
56340;BME280;42243;42.644;23.366;2023-06-04T04:08:35;94727.09;;;15.72;88.80
56340;BME280;42243;42.644;23.366;2023-06-04T04:11:02;94760.53;;;16.30;87.82
56340;BME280;42243;42.644;23.366;2023-06-04T04:13:28;94738.88;;;16.52;85.78
56340;BME280;42243;42.644;23.366;2023-06-04T04:15:53;94746.84;;;16.92;84.63
56340;BME280;42243;42.644;23.366;2023-06-04T04:18:21;94802.50;;;17.25;84.64
56340;BME280;42243;42.644;23.366;2023-06-04T04:20:47;94799.22;;;17.17;84.39
56340;BME280;42243;42.644;23.366;2023-06-04T04:23:13;94799.59;;;17.38;83.83
56340;BME280;42243;42.644;23.366;2023-06-04T04:25:38;94695.34;;;16.85;83.24
56340;BME280;42243;42.644;23.366;2023-06-04T04:28:04;94797.22;;;17.53;83.22
56340;BME280;42243;42.644;23.366;2023-06-04T04:30:35;94808.84;;;17.69;82.02
56340;BME280;42243;42.644;23.366;2023-06-04T04:33:02;94797.31;;;17.58;82.51
56340;BME280;42243;42.644;23.366;2023-06-04T04:35:27;94725.84;;;17.09;82.80
56340;BME280;42243;42.644;23.366;2023-06-04T04:37:54;94674.56;;;17.00;81.65
56340;BME280;42243;42.644;23.366;2023-06-04T04:40:20;94779.38;;;17.43;81.81
56340;BME280;42243;42.644;23.366;2023-06-04T04:42:46;94769.75;;;17.49;82.09
56340;BME280;42243;42.644;23.366;2023-06-04T04:45:11;94719.38;;;17.17;81.88
56340;BME280;42243;42.644;23.366;2023-06-04T04:47:37;94678.06;;;17.34;80.21
56340;BME280;42243;42.644;23.366;2023-06-04T04:50:04;94700.75;;;17.52;80.35
56340;BME280;42243;42.644;23.366;2023-06-04T04:52:29;94676.75;;;17.20;79.85
56340;BME280;42243;42.644;23.366;2023-06-04T04:54:55;94797.25;;;17.99;80.26
56340;BME280;42243;42.644;23.366;2023-06-04T04:57:23;94706.34;;;17.56;79.71
56340;BME280;42243;42.644;23.366;2023-06-04T04:59:48;94694.69;;;17.69;78.77
56340;BME280;42243;42.644;23.366;2023-06-04T05:02:14;94742.25;;;18.08;78.14
56340;BME280;42243;42.644;23.366;2023-06-04T05:04:40;94711.41;;;17.91;77.53
56340;BME280;42243;42.644;23.366;2023-06-04T05:07:07;94672.69;;;17.80;77.17
56340;BME280;42243;42.644;23.366;2023-06-04T05:09:32;94674.72;;;17.73;77.42
56340;BME280;42243;42.644;23.366;2023-06-04T05:11:58;94718.19;;;18.21;76.33
56340;BME280;42243;42.644;23.366;2023-06-04T05:14:23;94746.00;;;18.12;76.24
56340;BME280;42243;42.644;23.366;2023-06-04T05:16:49;94504.69;;;16.52;76.22
56340;BME280;42243;42.644;23.366;2023-06-04T05:19:16;94791.78;;;18.39;75.81
56340;BME280;42243;42.644;23.366;2023-06-04T05:21:42;94664.94;;;17.22;77.00
56340;BME280;42243;42.644;23.366;2023-06-04T05:24:08;94818.50;;;18.26;77.13
56340;BME280;42243;42.644;23.366;2023-06-04T05:26:34;94655.56;;;16.98;78.02
56340;BME280;42243;42.644;23.366;2023-06-04T05:28:59;94668.13;;;16.15;81.52
56340;BME280;42243;42.644;23.366;2023-06-04T05:31:26;94812.47;;;17.51;80.34
56340;BME280;42243;42.644;23.366;2023-06-04T05:33:54;94731.47;;;17.30;79.13
56340;BME280;42243;42.644;23.366;2023-06-04T05:36:19;94756.78;;;17.76;78.18
56340;BME280;42243;42.644;23.366;2023-06-04T05:38:45;94675.66;;;17.33;77.28
56340;BME280;42243;42.644;23.366;2023-06-04T05:41:10;94678.38;;;17.55;76.91
56340;BME280;42243;42.644;23.366;2023-06-04T05:43:37;94739.53;;;18.02;76.74
56340;BME280;42243;42.644;23.366;2023-06-04T05:46:03;94810.16;;;18.68;75.81
56340;BME280;42243;42.644;23.366;2023-06-04T05:48:28;94702.50;;;17.63;77.37
56340;BME280;42243;42.644;23.366;2023-06-04T05:50:54;94762.34;;;17.80;77.56
56340;BME280;42243;42.644;23.366;2023-06-04T05:53:19;94744.44;;;17.82;76.44
56340;BME280;42243;42.644;23.366;2023-06-04T05:55:45;94776.25;;;17.58;77.23
56340;BME280;42243;42.644;23.366;2023-06-04T05:58:10;94611.06;;;16.27;78.54
56340;BME280;42243;42.644;23.366;2023-06-04T06:00:36;94787.56;;;17.59;76.58
56340;BME280;42243;42.644;23.366;2023-06-04T06:03:01;94849.53;;;18.19;76.35
56340;BME280;42243;42.644;23.366;2023-06-04T06:05:26;94691.16;;;17.63;74.34
56340;BME280;42243;42.644;23.366;2023-06-04T06:07:52;94852.94;;;18.70;74.17
56340;BME280;42243;42.644;23.366;2023-06-04T06:10:17;94669.25;;;17.46;73.98
56340;BME280;42243;42.644;23.366;2023-06-04T06:12:43;94858.56;;;18.57;74.79
56340;BME280;42243;42.644;23.366;2023-06-04T06:15:09;94861.91;;;18.69;74.44
56340;BME280;42243;42.644;23.366;2023-06-04T06:17:35;94816.44;;;18.28;74.86
56340;BME280;42243;42.644;23.366;2023-06-04T06:20:00;94716.69;;;17.00;77.04
56340;BME280;42243;42.644;23.366;2023-06-04T06:22:31;94789.63;;;17.11;79.02
56340;BME280;42243;42.644;23.366;2023-06-04T06:24:57;94835.44;;;17.39;78.49
56340;BME280;42243;42.644;23.366;2023-06-04T06:27:23;94863.06;;;17.36;78.92
56340;BME280;42243;42.644;23.366;2023-06-04T06:29:48;94795.22;;;17.03;78.42
56340;BME280;42243;42.644;23.366;2023-06-04T06:32:13;94820.78;;;17.02;78.88
56340;BME280;42243;42.644;23.366;2023-06-04T06:34:39;94783.97;;;17.19;77.74
56340;BME280;42243;42.644;23.366;2023-06-04T06:37:06;94860.69;;;17.92;76.79
56340;BME280;42243;42.644;23.366;2023-06-04T06:39:31;94845.56;;;17.88;76.14
56340;BME280;42243;42.644;23.366;2023-06-04T06:41:57;94725.16;;;17.02;76.56
56340;BME280;42243;42.644;23.366;2023-06-04T06:44:23;94745.34;;;16.85;77.42
56340;BME280;42243;42.644;23.366;2023-06-04T06:46:48;94842.53;;;17.50;77.06
56340;BME280;42243;42.644;23.366;2023-06-04T06:49:14;94867.56;;;17.65;77.54
56340;BME280;42243;42.644;23.366;2023-06-04T06:51:40;94766.69;;;17.12;77.32
56340;BME280;42243;42.644;23.366;2023-06-04T06:54:05;94809.75;;;17.46;77.08
56340;BME280;42243;42.644;23.366;2023-06-04T06:56:32;94868.53;;;17.87;76.24
56340;BME280;42243;42.644;23.366;2023-06-04T06:58:58;94866.69;;;17.88;76.67
56340;BME280;42243;42.644;23.366;2023-06-04T07:01:23;94768.28;;;17.41;76.49
56340;BME280;42243;42.644;23.366;2023-06-04T07:03:49;94754.97;;;17.48;75.63
56340;BME280;42243;42.644;23.366;2023-06-04T07:06:15;94820.38;;;18.65;72.90
56340;BME280;42243;42.644;23.366;2023-06-04T07:08:41;94615.03;;;17.50;72.27
56340;BME280;42243;42.644;23.366;2023-06-04T07:11:07;94735.03;;;18.59;70.79
56340;BME280;42243;42.644;23.366;2023-06-04T07:13:37;94880.63;;;19.68;70.50
56340;BME280;42243;42.644;23.366;2023-06-04T07:16:03;94859.91;;;19.37;70.43
56340;BME280;42243;42.644;23.366;2023-06-04T07:18:28;94886.78;;;19.95;69.08
56340;BME280;42243;42.644;23.366;2023-06-04T07:20:54;94889.69;;;19.99;68.87
56340;BME280;42243;42.644;23.366;2023-06-04T07:23:20;94747.50;;;18.08;72.55
56340;BME280;42243;42.644;23.366;2023-06-04T07:25:46;94731.19;;;17.77;73.23
56340;BME280;42243;42.644;23.366;2023-06-04T07:28:11;94900.47;;;18.36;75.90
56340;BME280;42243;42.644;23.366;2023-06-04T07:30:37;94802.22;;;18.29;74.10
56340;BME280;42243;42.644;23.366;2023-06-04T07:33:03;94740.84;;;18.39;72.80
56340;BME280;42243;42.644;23.366;2023-06-04T07:35:28;94821.13;;;19.43;70.14
56340;BME280;42243;42.644;23.366;2023-06-04T07:37:54;94799.44;;;18.58;73.14
56340;BME280;42243;42.644;23.366;2023-06-04T07:40:19;94908.22;;;19.72;71.59
56340;BME280;42243;42.644;23.366;2023-06-04T07:42:45;94903.50;;;19.13;72.89
56340;BME280;42243;42.644;23.366;2023-06-04T07:45:11;94889.53;;;18.28;75.17
56340;BME280;42243;42.644;23.366;2023-06-04T07:47:37;94756.25;;;17.91;74.40
56340;BME280;42243;42.644;23.366;2023-06-04T07:50:04;94884.75;;;18.41;75.16
56340;BME280;42243;42.644;23.366;2023-06-04T07:52:30;94912.59;;;19.44;72.60
56340;BME280;42243;42.644;23.366;2023-06-04T07:54:56;94849.88;;;19.61;70.20
56340;BME280;42243;42.644;23.366;2023-06-04T07:57:22;94823.78;;;19.21;71.48
56340;BME280;42243;42.644;23.366;2023-06-04T07:59:47;94840.97;;;19.46;71.77
56340;BME280;42243;42.644;23.366;2023-06-04T08:02:13;94844.16;;;18.81;74.07
56340;BME280;42243;42.644;23.366;2023-06-04T08:04:40;94913.84;;;19.58;72.44
56340;BME280;42243;42.644;23.366;2023-06-04T08:07:05;94906.25;;;20.44;69.78
56340;BME280;42243;42.644;23.366;2023-06-04T08:09:31;94918.00;;;20.85;67.34
56340;BME280;42243;42.644;23.366;2023-06-04T08:11:56;94913.19;;;21.25;66.24
56340;BME280;42243;42.644;23.366;2023-06-04T08:14:22;94907.97;;;21.40;65.73
56340;BME280;42243;42.644;23.366;2023-06-04T08:16:48;94789.56;;;21.03;65.07
56340;BME280;42243;42.644;23.366;2023-06-04T08:19:14;94806.50;;;20.97;65.08
56340;BME280;42243;42.644;23.366;2023-06-04T08:21:41;94913.94;;;21.63;64.94
56340;BME280;42243;42.644;23.366;2023-06-04T08:24:08;94923.00;;;21.72;64.93
56340;BME280;42243;42.644;23.366;2023-06-04T08:26:34;94910.31;;;21.99;65.08
56340;BME280;42243;42.644;23.366;2023-06-04T08:29:02;94920.44;;;22.18;63.87
56340;BME280;42243;42.644;23.366;2023-06-04T08:31:28;94861.41;;;21.59;63.89
56340;BME280;42243;42.644;23.366;2023-06-04T08:33:54;94915.13;;;22.03;63.51
56340;BME280;42243;42.644;23.366;2023-06-04T08:36:19;94870.75;;;21.19;65.02
56340;BME280;42243;42.644;23.366;2023-06-04T08:38:45;94896.72;;;21.70;65.11
56340;BME280;42243;42.644;23.366;2023-06-04T08:41:34;94866.25;;;21.88;64.15
56340;BME280;42243;42.644;23.366;2023-06-04T08:44:00;94849.50;;;21.72;63.66
56340;BME280;42243;42.644;23.366;2023-06-04T08:46:31;94926.28;;;22.05;63.06
56340;BME280;42243;42.644;23.366;2023-06-04T08:49:00;94890.16;;;21.30;63.99
56340;BME280;42243;42.644;23.366;2023-06-04T08:51:32;94937.84;;;21.68;64.79
56340;BME280;42243;42.644;23.366;2023-06-04T08:53:59;94937.25;;;21.55;63.11
56340;BME280;42243;42.644;23.366;2023-06-04T08:56:25;94862.06;;;20.81;62.12
56340;BME280;42243;42.644;23.366;2023-06-04T08:58:52;94869.59;;;21.00;61.93
56340;BME280;42243;42.644;23.366;2023-06-04T09:01:19;94945.28;;;21.71;61.38
56340;BME280;42243;42.644;23.366;2023-06-04T09:03:45;94945.34;;;21.86;60.70
56340;BME280;42243;42.644;23.366;2023-06-04T09:06:10;94889.03;;;21.79;59.76
56340;BME280;42243;42.644;23.366;2023-06-04T09:08:39;94886.44;;;22.10;58.26
56340;BME280;42243;42.644;23.366;2023-06-04T09:11:10;94950.81;;;22.32;58.51
56340;BME280;42243;42.644;23.366;2023-06-04T09:13:36;94957.19;;;22.62;57.80
56340;BME280;42243;42.644;23.366;2023-06-04T09:16:05;94812.34;;;21.72;57.11
56340;BME280;42243;42.644;23.366;2023-06-04T09:18:33;94900.84;;;22.39;57.40
56340;BME280;42243;42.644;23.366;2023-06-04T09:21:07;94953.19;;;22.44;57.24
56340;BME280;42243;42.644;23.366;2023-06-04T09:23:46;94951.34;;;22.70;56.91
56340;BME280;42243;42.644;23.366;2023-06-04T09:26:12;94951.88;;;22.52;56.58
56340;BME280;42243;42.644;23.366;2023-06-04T09:28:42;94943.91;;;22.42;56.87
56340;BME280;42243;42.644;23.366;2023-06-04T09:31:09;94949.75;;;22.54;56.44
56340;BME280;42243;42.644;23.366;2023-06-04T09:33:49;94877.19;;;22.23;56.31
56340;BME280;42243;42.644;23.366;2023-06-04T09:36:15;94944.44;;;22.74;56.45
56340;BME280;42243;42.644;23.366;2023-06-04T09:38:41;94925.84;;;22.59;56.04
56340;BME280;42243;42.644;23.366;2023-06-04T09:41:14;94863.09;;;22.12;56.14
56340;BME280;42243;42.644;23.366;2023-06-04T09:43:40;94955.59;;;22.51;56.46
56340;BME280;42243;42.644;23.366;2023-06-04T09:46:13;94917.34;;;22.57;56.15
56340;BME280;42243;42.644;23.366;2023-06-04T09:48:39;94944.97;;;23.28;54.41
56340;BME280;42243;42.644;23.366;2023-06-04T09:51:13;94943.41;;;22.75;54.67
56340;BME280;42243;42.644;23.366;2023-06-04T09:53:40;94937.81;;;23.03;54.59
56340;BME280;42243;42.644;23.366;2023-06-04T09:56:07;94919.41;;;23.32;54.03
56340;BME280;42243;42.644;23.366;2023-06-04T09:58:34;94906.44;;;22.53;54.99
56340;BME280;42243;42.644;23.366;2023-06-04T10:01:02;94881.72;;;22.58;54.89
56340;BME280;42243;42.644;23.366;2023-06-04T10:03:36;94903.44;;;23.37;53.74
56340;BME280;42243;42.644;23.366;2023-06-04T10:06:03;94920.03;;;23.89;53.14
56340;BME280;42243;42.644;23.366;2023-06-04T10:08:30;94933.47;;;24.13;52.48
56340;BME280;42243;42.644;23.366;2023-06-04T10:10:59;94920.88;;;24.24;51.81
56340;BME280;42243;42.644;23.366;2023-06-04T10:13:49;94899.41;;;24.05;51.81
56340;BME280;42243;42.644;23.366;2023-06-04T10:16:18;94804.88;;;23.63;51.21
56340;BME280;42243;42.644;23.366;2023-06-04T10:18:45;94916.47;;;24.04;51.78
56340;BME280;42243;42.644;23.366;2023-06-04T10:21:13;94894.38;;;24.03;52.08
56340;BME280;42243;42.644;23.366;2023-06-04T10:23:39;94866.63;;;23.59;52.27
56340;BME280;42243;42.644;23.366;2023-06-04T10:26:07;94904.38;;;24.22;51.43
56340;BME280;42243;42.644;23.366;2023-06-04T10:28:34;94931.16;;;22.49;56.47
56340;BME280;42243;42.644;23.366;2023-06-04T10:31:00;94824.50;;;20.95;59.36
56340;BME280;42243;42.644;23.366;2023-06-04T10:33:26;94810.25;;;22.05;56.99
56340;BME280;42243;42.644;23.366;2023-06-04T10:35:53;94920.00;;;22.52;57.07
56340;BME280;42243;42.644;23.366;2023-06-04T10:38:20;94828.28;;;22.80;55.01
56340;BME280;42243;42.644;23.366;2023-06-04T10:40:47;94837.00;;;23.22;53.42
56340;BME280;42243;42.644;23.366;2023-06-04T10:43:14;94929.91;;;23.68;54.48
56340;BME280;42243;42.644;23.366;2023-06-04T10:45:45;94820.94;;;23.37;53.37
56340;BME280;42243;42.644;23.366;2023-06-04T10:48:12;94841.00;;;23.79;52.73
56340;BME280;42243;42.644;23.366;2023-06-04T10:50:53;94820.75;;;23.83;52.30
56340;BME280;42243;42.644;23.366;2023-06-04T10:53:19;94918.69;;;24.36;51.80
56340;BME280;42243;42.644;23.366;2023-06-04T10:55:46;94872.75;;;24.10;52.47
56340;BME280;42243;42.644;23.366;2023-06-04T10:58:13;94917.28;;;24.83;50.60
56340;BME280;42243;42.644;23.366;2023-06-04T11:00:40;94921.19;;;24.96;50.96
56340;BME280;42243;42.644;23.366;2023-06-04T11:03:09;94814.53;;;22.32;55.47
56340;BME280;42243;42.644;23.366;2023-06-04T11:05:39;94887.00;;;22.89;55.66
56340;BME280;42243;42.644;23.366;2023-06-04T11:08:05;94923.72;;;22.82;56.10
56340;BME280;42243;42.644;23.366;2023-06-04T11:10:36;94812.59;;;21.55;58.06
56340;BME280;42243;42.644;23.366;2023-06-04T11:13:03;94792.22;;;21.08;58.74
56340;BME280;42243;42.644;23.366;2023-06-04T11:15:38;94922.56;;;22.11;58.91
56340;BME280;42243;42.644;23.366;2023-06-04T11:18:04;94920.69;;;22.01;58.97
56340;BME280;42243;42.644;23.366;2023-06-04T11:20:30;94713.47;;;20.40;59.93
56340;BME280;42243;42.644;23.366;2023-06-04T11:22:58;94921.50;;;22.07;59.73
56340;BME280;42243;42.644;23.366;2023-06-04T11:25:25;94899.25;;;22.90;56.71
56340;BME280;42243;42.644;23.366;2023-06-04T11:27:52;94899.69;;;21.89;58.05
56340;BME280;42243;42.644;23.366;2023-06-04T11:30:18;94925.28;;;22.31;57.49
56340;BME280;42243;42.644;23.366;2023-06-04T11:32:43;94837.13;;;22.55;55.68
56340;BME280;42243;42.644;23.366;2023-06-04T11:35:09;94895.47;;;23.27;54.52
56340;BME280;42243;42.644;23.366;2023-06-04T11:37:37;94773.31;;;22.65;53.73
56340;BME280;42243;42.644;23.366;2023-06-04T11:40:14;94833.13;;;23.53;52.65
56340;BME280;42243;42.644;23.366;2023-06-04T11:42:40;94801.22;;;23.43;52.18
56340;BME280;42243;42.644;23.366;2023-06-04T11:45:11;94917.97;;;24.20;52.03
56340;BME280;42243;42.644;23.366;2023-06-04T11:47:37;94844.72;;;23.73;51.87
56340;BME280;42243;42.644;23.366;2023-06-04T11:50:03;94915.84;;;24.22;51.91
56340;BME280;42243;42.644;23.366;2023-06-04T11:52:31;94923.72;;;24.37;51.73
56340;BME280;42243;42.644;23.366;2023-06-04T11:54:57;94888.59;;;24.35;51.40
56340;BME280;42243;42.644;23.366;2023-06-04T11:57:22;94860.34;;;23.95;51.48
56340;BME280;42243;42.644;23.366;2023-06-04T11:59:48;94927.97;;;22.77;55.72
56340;BME280;42243;42.644;23.366;2023-06-04T12:02:14;94926.91;;;23.04;55.49
56340;BME280;42243;42.644;23.366;2023-06-04T12:04:39;94877.91;;;21.82;57.68
56340;BME280;42243;42.644;23.366;2023-06-04T12:07:05;94919.19;;;23.08;56.12
56340;BME280;42243;42.644;23.366;2023-06-04T12:09:32;94833.28;;;23.12;54.44
56340;BME280;42243;42.644;23.366;2023-06-04T12:12:02;94825.31;;;22.97;54.35
56340;BME280;42243;42.644;23.366;2023-06-04T12:14:28;94925.06;;;22.79;56.83
56340;BME280;42243;42.644;23.366;2023-06-04T12:16:58;94901.91;;;22.85;56.22
56340;BME280;42243;42.644;23.366;2023-06-04T12:19:24;94904.81;;;23.14;55.05
56340;BME280;42243;42.644;23.366;2023-06-04T12:24:26;94923.69;;;22.25;57.90
56340;BME280;42243;42.644;23.366;2023-06-04T12:27:01;94891.59;;;21.48;60.05
56340;BME280;42243;42.644;23.366;2023-06-04T12:29:28;94935.66;;;22.48;58.35
56340;BME280;42243;42.644;23.366;2023-06-04T12:32:05;94854.03;;;21.82;58.23
56340;BME280;42243;42.644;23.366;2023-06-04T12:34:33;94907.94;;;21.35;60.76
56340;BME280;42243;42.644;23.366;2023-06-04T12:36:58;94868.91;;;21.20;60.42
56340;BME280;42243;42.644;23.366;2023-06-04T12:39:24;94906.81;;;21.20;61.42
56340;BME280;42243;42.644;23.366;2023-06-04T12:41:49;94749.00;;;20.50;60.06
56340;BME280;42243;42.644;23.366;2023-06-04T12:44:15;94907.75;;;22.25;58.47
56340;BME280;42243;42.644;23.366;2023-06-04T12:46:41;94927.97;;;22.42;57.66
56340;BME280;42243;42.644;23.366;2023-06-04T12:49:06;94870.28;;;22.16;57.60
56340;BME280;42243;42.644;23.366;2023-06-04T12:51:31;94914.41;;;22.58;57.05
56340;BME280;42243;42.644;23.366;2023-06-04T12:53:57;94918.41;;;22.46;57.24